Time;durP1;ratioP1;P1;durP2;ratioP2;P2;SDS_P1;SDS_P2;PMS_P1;PMS_P2;Temp;Humidity;BMP_temperature;BMP_pressure;BME280_temperature;BME280_humidity;BME280_pressure;Samples;Min_cycle;Max_cycle;Signal;HPM_P1;HPM_P2
2023/11/13 00:04:00;;;;;;;8.15;4.75;;;;;;;9.57;70.32;99780.81;10373846;28;20052;-59
2023/11/13 00:09:02;;;;;;;13.30;4.82;;;;;;;9.67;69.92;99750.00;10361871;28;20049;-60
2023/11/13 00:14:04;;;;;;;12.90;4.47;;;;;;;9.81;69.64;99737.59;10376316;28;20057;-59
2023/11/13 00:19:05;;;;;;;8.60;4.28;;;;;;;9.71;70.06;99737.84;10370278;28;20045;-59
2023/11/13 00:24:07;;;;;;;7.57;4.28;;;;;;;9.62;70.38;99749.72;10366895;28;20411;-59
2023/11/13 00:29:11;;;;;;;12.23;5.40;;;;;;;9.65;69.90;99730.56;10359811;28;20046;-59
2023/11/13 00:34:12;;;;;;;6.30;4.07;;;;;;;9.67;69.92;99736.56;10363867;28;20054;-60
2023/11/13 00:39:14;;;;;;;11.43;5.72;;;;;;;9.72;69.62;99747.59;10367070;28;20160;-59
2023/11/13 00:44:15;;;;;;;11.73;4.75;;;;;;;9.81;69.71;99723.34;10361603;28;20057;-59
2023/11/13 00:49:17;;;;;;;8.55;3.90;;;;;;;9.79;69.38;99730.75;10360843;28;20042;-59
2023/11/13 00:54:18;;;;;;;11.23;5.78;;;;;;;9.70;69.81;99724.66;10353286;28;20300;-59
2023/11/13 00:59:20;;;;;;;8.77;4.60;;;;;;;9.69;69.58;99721.13;10357986;28;20149;-59
2023/11/13 01:04:21;;;;;;;9.80;5.60;;;;;;;9.70;69.80;99717.41;10354457;28;20049;-60
2023/11/13 01:09:23;;;;;;;9.20;4.57;;;;;;;9.62;69.75;99717.53;10366032;28;20065;-59
2023/11/13 01:14:25;;;;;;;8.10;4.13;;;;;;;9.63;69.86;99713.81;10364113;28;20685;-60
2023/11/13 01:19:27;;;;;;;9.48;4.55;;;;;;;9.78;69.39;99705.75;10365831;28;20412;-60
2023/11/13 01:24:29;;;;;;;7.88;3.40;;;;;;;9.80;69.39;99713.63;10364993;28;20048;-60
2023/11/13 01:29:30;;;;;;;6.53;3.28;;;;;;;9.80;69.07;99701.03;10355851;28;20137;-59
2023/11/13 01:34:31;;;;;;;5.65;2.25;;;;;;;9.83;68.80;99713.25;10358942;28;20385;-59
2023/11/13 01:39:33;;;;;;;3.47;2.15;;;;;;;9.85;68.91;99703.16;10363076;28;20041;-60
2023/11/13 01:44:34;;;;;;;5.00;1.52;;;;;;;9.90;68.58;99690.84;10372284;28;20050;-59
2023/11/13 01:49:36;;;;;;;3.90;1.65;;;;;;;9.99;68.26;99685.34;10364573;28;20053;-59
2023/11/13 01:54:38;;;;;;;4.30;1.15;;;;;;;10.03;68.01;99684.81;10363564;28;20065;-60
2023/11/13 01:59:42;;;;;;;4.18;1.33;;;;;;;10.02;68.15;99695.72;10361423;28;20061;-59
2023/11/13 02:04:44;;;;;;;2.40;0.82;;;;;;;9.99;68.08;99688.88;10357246;28;20033;-59
2023/11/13 02:09:49;;;;;;;3.50;1.48;;;;;;;9.89;68.23;99683.81;10360105;28;20049;-60
2023/11/13 02:14:51;;;;;;;1.98;0.98;;;;;;;9.83;68.14;99670.28;10365575;28;20414;-59
2023/11/13 02:19:52;;;;;;;5.13;1.80;;;;;;;9.70;68.53;99677.16;10367427;28;20046;-59
2023/11/13 02:24:54;;;;;;;4.07;1.90;;;;;;;9.43;69.13;99675.16;10349251;28;20548;-59
2023/11/13 02:29:55;;;;;;;2.15;1.73;;;;;;;9.16;69.90;99663.22;10368379;28;20511;-59
2023/11/13 02:34:56;;;;;;;4.40;2.25;;;;;;;9.12;69.85;99647.50;10364881;28;20046;-59
2023/11/13 02:39:58;;;;;;;6.55;3.40;;;;;;;9.01;70.31;99633.72;10346801;28;20042;-59
2023/11/13 02:45:00;;;;;;;6.10;2.95;;;;;;;9.00;70.15;99626.69;10349665;28;20046;-59
2023/11/13 02:50:02;;;;;;;5.68;2.75;;;;;;;8.91;70.63;99653.56;10365810;28;20192;-59
2023/11/13 02:55:05;;;;;;;6.85;3.80;;;;;;;8.97;70.40;99640.47;10367000;28;20052;-59
2023/11/13 03:00:07;;;;;;;5.65;3.17;;;;;;;8.95;70.49;99615.69;10376155;28;20042;-59
2023/11/13 03:05:09;;;;;;;8.45;2.78;;;;;;;8.88;70.81;99608.34;10379568;28;20057;-60
2023/11/13 03:10:10;;;;;;;6.28;3.38;;;;;;;8.82;71.27;99614.44;10376687;28;20511;-61
2023/11/13 03:15:12;;;;;;;8.07;3.67;;;;;;;8.77;71.30;99626.72;10384610;28;20401;-61
2023/11/13 03:20:14;;;;;;;6.72;4.28;;;;;;;8.79;71.50;99636.28;10389917;28;20052;-61
2023/11/13 03:25:15;;;;;;;9.73;4.00;;;;;;;8.77;71.73;99635.63;10385134;28;20038;-61
2023/11/13 03:30:17;;;;;;;6.65;3.47;;;;;;;8.73;72.04;99639.69;10381313;28;20046;-61
2023/11/13 03:35:18;;;;;;;13.07;4.40;;;;;;;8.83;72.14;99650.97;10380723;28;20053;-61
2023/11/13 03:40:20;;;;;;;7.53;4.07;;;;;;;8.87;71.98;99648.78;10383712;28;20046;-61
2023/11/13 03:45:22;;;;;;;10.98;4.97;;;;;;;8.92;72.37;99657.91;10381254;28;20104;-61
2023/11/13 03:50:23;;;;;;;9.88;3.97;;;;;;;8.92;72.21;99652.53;10382660;28;20045;-61
2023/11/13 03:55:26;;;;;;;9.25;4.40;;;;;;;8.95;72.55;99662.09;10387196;28;20044;-61
2023/11/13 04:00:28;;;;;;;9.45;4.43;;;;;;;8.98;72.68;99639.44;10386536;28;20518;-61
2023/11/13 04:05:29;;;;;;;8.35;5.05;;;;;;;9.05;72.84;99625.13;10381612;28;20045;-61
2023/11/13 04:10:31;;;;;;;11.55;4.80;;;;;;;9.11;72.96;99600.25;10383346;28;20049;-61
2023/11/13 04:15:33;;;;;;;11.05;5.63;;;;;;;9.10;73.31;99595.91;10370303;28;20050;-61
2023/11/13 04:20:34;;;;;;;8.73;4.78;;;;;;;9.01;73.65;99597.00;10381235;28;20123;-61
2023/11/13 04:25:36;;;;;;;8.85;4.82;;;;;;;9.02;73.78;99603.19;10384527;28;20042;-61
2023/11/13 04:30:37;;;;;;;10.43;4.55;;;;;;;9.07;73.96;99608.84;10383679;28;20053;-62
2023/11/13 04:35:39;;;;;;;14.75;4.95;;;;;;;9.07;73.87;99606.16;10369472;28;20056;-61
2023/11/13 04:40:40;;;;;;;8.13;4.38;;;;;;;9.03;73.94;99611.06;10381806;28;20052;-62
2023/11/13 04:45:42;;;;;;;11.63;4.50;;;;;;;9.03;74.10;99615.59;10383648;28;20050;-61
2023/11/13 04:50:43;;;;;;;6.95;3.72;;;;;;;8.97;73.74;99617.16;10381745;28;20554;-62
2023/11/13 04:55:45;;;;;;;9.15;4.22;;;;;;;8.97;74.49;99605.63;10386098;28;20052;-62
2023/11/13 05:00:46;;;;;;;8.50;3.80;;;;;;;8.96;74.63;99610.13;10380803;28;20362;-62
2023/11/13 05:05:47;;;;;;;8.98;4.03;;;;;;;8.91;75.11;99608.00;10383877;28;20050;-63
2023/11/13 05:10:49;;;;;;;10.20;4.28;;;;;;;8.93;75.45;99611.34;10383491;28;20132;-65
2023/11/13 05:15:50;;;;;;;6.72;3.53;;;;;;;8.94;74.98;99636.28;10373406;28;20056;-66
2023/11/13 05:20:52;;;;;;;8.30;4.10;;;;;;;8.85;75.92;99597.19;10381684;28;20045;-68
2023/11/13 05:25:53;;;;;;;8.15;3.75;;;;;;;8.95;75.62;99600.44;10381291;28;20042;-69
2023/11/13 05:30:54;;;;;;;8.77;3.90;;;;;;;9.04;75.78;99599.31;10378412;28;20049;-69
2023/11/13 05:35:56;;;;;;;6.40;3.40;;;;;;;9.05;75.78;99609.03;10382602;28;20051;-68
2023/11/13 05:40:58;;;;;;;8.88;3.88;;;;;;;9.10;75.77;99619.19;10381062;28;20038;-63
2023/11/13 05:46:00;;;;;;;8.88;3.65;;;;;;;9.00;76.18;99643.59;10382435;28;20392;-62
2023/11/13 05:51:01;;;;;;;8.30;3.70;;;;;;;8.97;76.21;99637.78;10376179;28;20504;-61
2023/11/13 05:56:03;;;;;;;7.43;3.53;;;;;;;9.02;76.29;99651.44;10384645;28;20049;-61
2023/11/13 06:01:06;;;;;;;29.63;11.07;;;;;;;8.95;76.75;99637.13;10376665;28;20042;-60
2023/11/13 06:06:12;;;;;;;9.75;4.43;;;;;;;8.95;76.53;99654.03;10374252;28;20062;-61
2023/11/13 06:11:17;;;;;;;9.73;4.32;;;;;;;8.95;76.68;99648.69;10379142;28;20044;-61
2023/11/13 06:16:19;;;;;;;10.65;4.00;;;;;;;9.05;76.88;99626.97;10381798;28;20034;-61
2023/11/13 06:21:21;;;;;;;10.05;4.30;;;;;;;9.12;76.77;99627.88;10384583;28;20048;-61
2023/11/13 06:26:23;;;;;;;9.80;4.47;;;;;;;9.15;77.12;99606.06;10378861;28;20037;-61
2023/11/13 06:31:25;;;;;;;10.95;4.10;;;;;;;9.12;76.95;99611.78;10379049;28;20056;-60
2023/11/13 06:36:31;;;;;;;8.38;3.72;;;;;;;8.95;77.57;99613.00;10413440;23;20042;-84
2023/11/13 06:41:33;;;;;;;8.27;4.13;;;;;;;8.88;77.74;99623.63;10351996;28;20058;-84
2023/11/13 06:46:35;;;;;;;6.30;3.15;;;;;;;8.89;77.75;99631.47;10343494;28;20052;-83
2023/11/13 06:51:37;;;;;;;9.40;3.42;;;;;;;8.85;77.92;99632.03;10353867;28;20061;-80
2023/11/13 06:56:39;;;;;;;8.77;3.90;;;;;;;8.88;77.45;99629.81;10379805;28;20041;-80
2023/11/13 07:01:42;;;;;;;7.93;3.63;;;;;;;8.93;77.69;99614.00;10393614;28;20121;-79
2023/11/13 07:06:44;;;;;;;9.48;4.10;;;;;;;8.93;77.74;99614.00;10409166;28;20439;-79
2023/11/13 07:11:47;;;;;;;8.95;4.60;;;;;;;8.93;77.60;99611.34;10408717;28;20045;-77
2023/11/13 07:16:50;;;;;;;10.52;4.25;;;;;;;8.95;77.70;99613.00;10389125;28;20049;-80
2023/11/13 07:21:52;;;;;;;11.27;4.63;;;;;;;8.95;78.20;99618.38;10395357;28;20111;-80
2023/11/13 07:26:53;;;;;;;11.65;4.72;;;;;;;9.02;78.12;99608.56;10394840;28;20125;-80
2023/11/13 07:31:55;;;;;;;11.32;5.53;;;;;;;9.18;78.12;99613.72;10404658;28;20106;-82
2023/11/13 07:36:57;;;;;;;11.63;4.75;;;;;;;9.29;77.77;99610.59;10397829;28;20077;-80
2023/11/13 07:41:58;;;;;;;12.70;4.95;;;;;;;9.44;77.64;99612.41;10398121;28;20041;-82
2023/11/13 07:47:00;;;;;;;14.15;6.05;;;;;;;9.60;77.45;99608.72;10395202;23;20120;-62
2023/11/13 07:52:04;;;;;;;11.57;5.75;;;;;;;9.70;77.18;99644.13;10416622;28;20114;-63
2023/11/13 07:57:05;;;;;;;11.63;5.10;;;;;;;9.74;77.58;99648.13;10409975;28;20069;-62
2023/11/13 08:02:09;;;;;;;12.68;5.90;;;;;;;9.77;77.61;99666.50;10391791;28;20080;-62
2023/11/13 08:07:11;;;;;;;12.32;5.82;;;;;;;9.74;77.71;99656.16;10390635;28;20519;-63
2023/11/13 08:12:23;;;;;;;12.70;5.60;;;;;;;9.72;77.78;99648.28;10404336;28;20049;-63
2023/11/13 08:17:25;;;;;;;11.90;5.50;;;;;;;9.83;77.40;99633.53;10395128;28;20037;-61
2023/11/13 08:22:26;;;;;;;13.32;5.95;;;;;;;9.71;77.74;99629.69;10413014;28;20124;-66
2023/11/13 08:27:28;;;;;;;11.95;5.57;;;;;;;9.56;78.24;99623.50;10414131;28;20041;-66
2023/11/13 08:32:29;;;;;;;10.43;4.85;;;;;;;9.45;78.50;99614.94;10412630;28;20041;-64
2023/11/13 08:37:32;;;;;;;9.80;4.20;;;;;;;9.32;79.02;99602.19;10412266;28;20079;-63
2023/11/13 08:42:36;;;;;;;11.75;5.00;;;;;;;9.31;78.88;99608.56;10410991;28;20041;-66
2023/11/13 08:47:39;;;;;;;15.73;4.97;;;;;;;9.27;79.21;99585.81;10408151;28;20057;-67
2023/11/13 08:52:43;;;;;;;9.35;4.45;;;;;;;9.28;79.24;99566.03;10406166;28;20396;-66
2023/11/13 08:57:46;;;;;;;15.82;5.53;;;;;;;9.26;79.63;99567.22;10389087;28;20391;-67
2023/11/13 09:02:56;;;;;;;11.32;4.25;;;;;;;9.35;79.72;99567.97;10386807;28;20120;-66
2023/11/13 09:07:58;;;;;;;12.88;5.15;;;;;;;9.40;79.18;99585.16;10395898;28;20045;-66
2023/11/13 09:13:02;;;;;;;13.90;5.28;;;;;;;9.44;79.36;99578.41;10417541;28;20100;-64
2023/11/13 09:18:05;;;;;;;16.67;5.03;;;;;;;9.70;78.74;99574.38;10404075;28;20117;-66
2023/11/13 09:23:09;;;;;;;21.40;5.68;;;;;;;9.84;78.87;99575.34;10402939;28;20056;-64
2023/11/13 09:28:10;;;;;;;15.18;5.20;;;;;;;9.88;78.83;99566.72;10404528;28;20059;-66
2023/11/13 09:33:12;;;;;;;15.18;4.72;;;;;;;9.97;78.91;99539.72;10407728;28;20057;-65
2023/11/13 09:38:13;;;;;;;9.80;4.07;;;;;;;9.93;79.26;99558.91;10387733;28;20147;-65
2023/11/13 09:43:34;;;;;;;14.48;4.50;;;;;;;9.79;79.61;99554.41;10411274;28;20093;-64
2023/11/13 09:48:45;;;;;;;10.68;4.50;;;;;;;9.77;79.69;99556.47;10405106;28;20574;-64
2023/11/13 09:53:47;;;;;;;13.68;4.50;;;;;;;9.83;79.78;99536.91;10413028;28;20041;-72
2023/11/13 09:58:49;;;;;;;13.90;4.85;;;;;;;9.82;79.64;99519.16;10404602;28;20133;-70
2023/11/13 10:03:51;;;;;;;15.75;6.05;;;;;;;9.94;79.91;99492.63;10401832;28;20051;-69
2023/11/13 10:08:53;;;;;;;13.68;4.88;;;;;;;9.98;80.02;99479.66;10399469;28;20042;-71
2023/11/13 10:14:11;;;;;;;12.15;4.43;;;;;;;9.99;79.79;99468.72;10399640;28;20037;-70
2023/11/13 10:19:16;;;;;;;;;;;;;;;10.15;79.46;99494.47;10401519;28;20044;-70
2023/11/13 10:24:21;;;;;;;12.63;4.88;;;;;;;9.85;80.57;99470.47;10408306;28;19982;-72
2023/11/13 10:29:38;;;;;;;11.93;4.80;;;;;;;10.05;80.55;99480.53;10398015;28;20139;-73
2023/11/13 10:34:45;;;;;;;11.75;4.05;;;;;;;10.08;80.43;99459.50;10405464;28;20041;-73
2023/11/13 10:39:47;;;;;;;12.77;4.70;;;;;;;10.35;79.90;99448.13;10399695;28;20046;-74
2023/11/13 10:44:50;;;;;;;17.08;4.65;;;;;;;10.51;79.47;99440.59;10390720;28;20033;-74
2023/11/13 10:49:59;;;;;;;11.05;4.38;;;;;;;10.49;79.70;99428.41;10394253;28;20045;-73
2023/11/13 10:55:04;;;;;;;14.32;4.53;;;;;;;10.55;79.51;99410.66;10405728;28;20043;-71
2023/11/13 11:00:12;;;;;;;11.23;4.75;;;;;;;10.43;80.51;99396.94;10408231;28;20503;-72
2023/11/13 11:05:22;;;;;;;14.15;4.32;;;;;;;10.56;79.82;99378.19;10388608;28;20132;-72
2023/11/13 11:10:25;;;;;;;17.08;5.75;;;;;;;10.60;80.06;99363.31;10409803;28;20522;-73
2023/11/13 11:16:04;;;;;;;14.73;4.18;;;;;;;10.72;79.66;99336.69;10384819;28;20037;-72
2023/11/13 11:21:15;;;;;;;15.18;4.88;;;;;;;10.80;79.56;99316.88;10381875;28;20042;-72
2023/11/13 11:26:17;;;;;;;10.48;3.85;;;;;;;10.79;79.93;99309.84;10407401;28;20051;-73
2023/11/13 11:31:32;;;;;;;13.20;5.68;;;;;;;10.80;79.82;99306.09;10403420;28;20071;-70
2023/11/13 11:36:37;;;;;;;15.20;4.95;;;;;;;10.70;80.22;99293.91;10392929;28;20045;-72
2023/11/13 11:41:43;;;;;;;11.02;5.03;;;;;;;10.69;80.46;99296.78;10405829;28;20500;-73
2023/11/13 11:46:46;;;;;;;13.52;4.80;;;;;;;10.68;80.63;99284.38;10398898;28;20076;-68
2023/11/13 11:51:49;;;;;;;8.60;4.00;;;;;;;10.74;81.10;99269.28;10410990;28;20065;-71
2023/11/13 11:57:10;;;;;;;14.00;4.80;;;;;;;10.81;80.85;99257.53;10411866;28;20041;-72
2023/11/13 12:02:12;;;;;;;14.18;4.50;;;;;;;10.86;81.15;99252.38;10415720;28;20338;-68
2023/11/13 12:07:14;;;;;;;15.80;5.65;;;;;;;10.86;81.15;99220.13;10401725;28;20381;-72
2023/11/13 12:12:19;;;;;;;15.80;4.50;;;;;;;10.97;81.55;99210.59;10384982;28;20048;-63
2023/11/13 12:17:20;;;;;;;10.82;3.90;;;;;;;11.08;81.31;99201.91;10407582;28;20057;-62
2023/11/13 12:22:22;;;;;;;10.55;3.92;;;;;;;11.17;81.00;99193.63;10407031;28;20045;-61
2023/11/13 12:27:25;;;;;;;12.70;4.63;;;;;;;11.06;81.80;99193.22;10371036;28;20041;-65
2023/11/13 12:32:29;;;;;;;13.45;4.93;;;;;;;11.11;81.69;99177.28;10416465;28;20049;-63
2023/11/13 12:37:31;;;;;;;13.77;5.05;;;;;;;11.19;82.16;99170.84;10407599;28;20103;-64
2023/11/13 12:42:32;;;;;;;17.67;5.03;;;;;;;11.34;81.52;99146.41;10382748;28;20111;-65
2023/11/13 12:47:35;;;;;;;14.57;4.47;;;;;;;11.47;81.13;99154.47;10409200;28;20044;-66
2023/11/13 12:52:37;;;;;;;16.85;5.43;;;;;;;11.38;81.57;99152.22;10398591;28;20037;-66
2023/11/13 12:57:42;;;;;;;13.20;4.82;;;;;;;11.41;81.53;99152.59;10391209;28;20524;-66
2023/11/13 13:02:49;;;;;;;11.70;4.22;;;;;;;11.40;81.79;99140.19;10376340;28;20052;-65
2023/11/13 13:07:52;;;;;;;8.43;4.03;;;;;;;11.41;81.76;99119.47;10392649;28;20033;-66
2023/11/13 13:12:54;;;;;;;12.80;4.00;;;;;;;11.55;81.92;99109.50;10408628;28;20048;-65
2023/11/13 13:17:57;;;;;;;14.07;5.35;;;;;;;11.51;81.99;99095.63;10395783;28;20057;-65
2023/11/13 13:23:00;;;;;;;9.18;4.72;;;;;;;11.50;81.83;99097.50;10416077;28;20042;-73
2023/11/13 13:28:03;;;;;;;11.93;5.05;;;;;;;11.41;82.34;99071.88;10412574;28;20033;-69
2023/11/13 13:33:10;;;;;;;12.95;5.38;;;;;;;11.51;82.77;99072.25;10382153;28;20046;-74
2023/11/13 13:38:14;;;;;;;11.18;4.63;;;;;;;11.65;81.94;99067.66;10381807;28;20107;-72
2023/11/13 13:43:16;;;;;;;9.50;5.00;;;;;;;11.68;82.13;99056.44;10407991;28;20075;-71
2023/11/13 13:48:18;;;;;;;9.52;4.57;;;;;;;11.79;82.21;99057.63;10409640;28;20849;-72
2023/11/13 13:53:24;;;;;;;11.65;5.22;;;;;;;11.89;82.24;99039.16;10406434;28;20045;-73
2023/11/13 13:58:25;;;;;;;10.65;4.95;;;;;;;12.07;81.81;99022.25;10396375;28;20121;-72
2023/11/13 14:03:27;;;;;;;11.70;5.07;;;;;;;12.25;81.31;99013.41;10399230;28;20049;-72
2023/11/13 14:08:29;;;;;;;14.23;4.95;;;;;;;12.46;81.01;99030.22;10394266;28;20049;-74
2023/11/13 14:13:34;;;;;;;12.95;6.53;;;;;;;12.35;81.67;99029.09;10385597;28;20129;-74
2023/11/13 14:18:36;;;;;;;15.85;5.40;;;;;;;12.36;81.98;99032.59;10392894;28;20084;-75
2023/11/13 14:23:43;;;;;;;15.65;6.43;;;;;;;12.56;82.11;99009.00;10388580;28;20132;-73
2023/11/13 14:28:46;;;;;;;14.27;5.82;;;;;;;12.70;81.66;98980.03;10378940;28;20050;-70
2023/11/13 14:33:47;;;;;;;18.80;7.65;;;;;;;12.76;81.51;98987.22;10393117;28;20475;-67
2023/11/13 14:38:49;;;;;;;19.15;8.05;;;;;;;12.81;81.90;98973.88;10388247;28;20052;-68
2023/11/13 14:43:51;;;;;;;24.27;8.02;;;;;;;12.85;81.75;98961.59;10398527;28;20045;-68
2023/11/13 14:48:56;;;;;;;21.50;8.68;;;;;;;12.93;82.00;98959.66;10395722;28;20497;-67
2023/11/13 14:53:57;;;;;;;22.45;8.00;;;;;;;13.00;82.04;98945.03;10398445;28;20061;-68
2023/11/13 14:58:59;;;;;;;20.35;8.65;;;;;;;13.10;82.46;98904.84;10400763;28;20042;-67
2023/11/13 15:04:03;;;;;;;18.08;7.57;;;;;;;13.23;82.84;98911.97;10380524;28;20096;-68
2023/11/13 15:09:05;;;;;;;22.92;7.60;;;;;;;13.39;82.96;98905.13;10403213;28;20603;-68
2023/11/13 15:14:07;;;;;;;17.05;6.55;;;;;;;13.54;82.80;98868.75;10417375;28;20058;-68
2023/11/13 15:19:08;;;;;;;17.30;5.28;;;;;;;13.68;82.95;98864.78;10417746;28;20137;-68
2023/11/13 15:24:09;;;;;;;9.38;3.47;;;;;;;13.78;83.20;98870.44;10408577;28;20092;-69
2023/11/13 15:29:11;;;;;;;9.88;3.10;;;;;;;13.92;83.26;98854.84;10413034;28;20044;-70
2023/11/13 15:34:12;;;;;;;6.60;2.80;;;;;;;14.00;83.37;98850.94;10421273;28;20051;-67
2023/11/13 15:39:27;;;;;;;4.05;2.17;;;;;;;14.12;83.29;98819.34;10395188;28;20045;-66
2023/11/13 15:44:29;;;;;;;7.32;1.75;;;;;;;14.23;83.59;98833.91;10406381;28;20564;-66
2023/11/13 15:49:31;;;;;;;5.07;1.33;;;;;;;14.28;83.58;98821.31;10399389;28;20068;-66
2023/11/13 15:54:34;;;;;;;3.13;0.90;;;;;;;14.36;84.03;98830.13;10396565;28;20358;-65
2023/11/13 15:59:36;;;;;;;4.88;0.88;;;;;;;14.43;83.85;98826.22;10393150;28;20152;-64
2023/11/13 16:04:37;;;;;;;3.45;0.70;;;;;;;14.52;83.89;98820.44;10407249;28;20136;-65
2023/11/13 16:09:39;;;;;;;2.20;0.80;;;;;;;14.63;83.67;98815.03;10404647;28;20555;-63
2023/11/13 16:14:42;;;;;;;2.45;0.77;;;;;;;14.61;84.17;98825.28;10391057;28;20399;-66
2023/11/13 16:19:44;;;;;;;1.00;0.40;;;;;;;14.63;84.29;98825.84;10412783;28;20118;-66
2023/11/13 16:24:46;;;;;;;1.00;0.30;;;;;;;14.66;84.42;98806.44;10408886;28;20049;-67
2023/11/13 16:29:48;;;;;;;1.40;0.40;;;;;;;14.71;84.54;98813.84;10400612;28;20038;-66
2023/11/13 16:34:50;;;;;;;0.95;0.30;;;;;;;14.73;84.46;98814.41;10405839;28;20056;-67
2023/11/13 16:39:53;;;;;;;3.50;0.25;;;;;;;14.74;84.69;98807.94;10384497;28;20104;-66
2023/11/13 16:44:55;;;;;;;1.40;0.70;;;;;;;14.78;84.61;98811.78;10391833;28;20051;-66
2023/11/13 16:49:56;;;;;;;0.95;0.30;;;;;;;14.81;84.35;98814.03;10403894;28;20142;-65
2023/11/13 16:54:58;;;;;;;0.82;0.20;;;;;;;14.85;84.49;98806.25;10409794;28;20046;-65
2023/11/13 17:00:00;;;;;;;2.70;0.30;;;;;;;14.92;84.20;98801.50;10392520;28;20036;-65
2023/11/13 17:05:03;;;;;;;1.92;0.30;;;;;;;14.96;84.14;98791.00;10404753;28;20498;-67
2023/11/13 17:10:05;;;;;;;0.95;0.50;;;;;;;14.97;84.16;98798.91;10406255;28;20050;-64
2023/11/13 17:15:08;;;;;;;0.60;0.30;;;;;;;14.96;84.10;98799.94;10387733;28;20079;-65
2023/11/13 17:20:11;;;;;;;0.60;0.28;;;;;;;14.95;84.37;98803.72;10379186;28;20499;-63
2023/11/13 17:25:12;;;;;;;1.85;0.50;;;;;;;14.98;84.05;98797.00;10407862;28;20111;-63
2023/11/13 17:30:13;;;;;;;0.52;0.30;;;;;;;14.94;84.23;98783.13;10404532;28;20048;-63
2023/11/13 17:35:15;;;;;;;1.08;0.40;;;;;;;14.98;84.33;98803.22;10405139;28;20044;-64
2023/11/13 17:40:21;;;;;;;1.17;0.50;;;;;;;14.98;84.27;98792.41;10409645;28;20084;-64
2023/11/13 17:45:22;;;;;;;2.65;0.50;;;;;;;15.00;84.35;98794.88;10406604;28;20043;-63
2023/11/13 17:50:24;;;;;;;2.78;0.60;;;;;;;15.03;84.37;98811.44;10403103;28;20041;-62
2023/11/13 17:55:26;;;;;;;1.45;0.40;;;;;;;15.03;84.20;98802.53;10399929;28;20049;-62
2023/11/13 18:00:27;;;;;;;2.00;0.30;;;;;;;15.06;84.34;98824.47;10408820;28;20132;-65
2023/11/13 18:05:31;;;;;;;0.50;0.30;;;;;;;15.08;84.15;98830.47;10385308;28;20048;-65
2023/11/13 18:10:32;;;;;;;0.43;0.20;;;;;;;15.09;84.28;98847.56;10390448;28;20411;-64
2023/11/13 18:15:34;;;;;;;0.98;0.80;;;;;;;15.16;84.16;98825.72;10404249;28;20063;-64
2023/11/13 18:20:35;;;;;;;3.60;0.40;;;;;;;15.14;84.04;98819.75;10408118;28;20516;-65
2023/11/13 18:25:37;;;;;;;2.85;0.40;;;;;;;15.07;84.31;98910.03;10398634;28;20064;-63
2023/11/13 18:30:39;;;;;;;3.88;0.40;;;;;;;14.99;84.69;98913.13;10384092;28;20042;-63
2023/11/13 18:35:40;;;;;;;1.63;0.25;;;;;;;14.88;84.99;98924.81;10401647;28;20407;-63
2023/11/13 18:40:41;;;;;;;0.47;0.20;;;;;;;14.82;85.05;98923.06;10401399;28;20120;-61
2023/11/13 18:45:45;;;;;;;1.20;0.20;;;;;;;14.66;85.11;98905.69;10402494;28;20068;-60
2023/11/13 18:50:47;;;;;;;0.30;0.10;;;;;;;14.49;85.00;98908.25;10405815;28;20044;-61
2023/11/13 18:55:48;;;;;;;1.27;0.15;;;;;;;14.40;84.94;98905.09;10404627;28;20129;-61
2023/11/13 19:00:50;;;;;;;1.55;0.00;;;;;;;14.43;84.35;98931.66;10410567;28;20037;-62
2023/11/13 19:05:51;;;;;;;0.80;0.20;;;;;;;14.57;83.35;98893.56;10391859;28;20041;-61
2023/11/13 19:10:55;;;;;;;0.20;0.10;;;;;;;14.70;82.24;98912.25;10411867;28;20584;-64
2023/11/13 19:15:57;;;;;;;2.03;0.40;;;;;;;14.84;80.82;98883.88;10405146;28;20065;-62
2023/11/13 19:20:59;;;;;;;1.73;0.55;;;;;;;14.98;79.65;98902.53;10401966;28;20490;-63
2023/11/13 19:26:00;;;;;;;1.38;0.20;;;;;;;15.05;79.00;98914.06;10405034;28;20041;-64
2023/11/13 19:31:02;;;;;;;2.17;0.22;;;;;;;15.07;78.06;98931.69;10400034;28;20053;-62
2023/11/13 19:36:03;;;;;;;3.80;0.20;;;;;;;15.11;76.53;98942.03;10371070;28;20672;-63
2023/11/13 19:41:08;;;;;;;2.15;0.20;;;;;;;15.13;74.67;98951.56;10389323;28;20056;-63
2023/11/13 19:46:10;;;;;;;6.30;0.60;;;;;;;15.21;73.39;98969.31;10400862;28;20053;-64
2023/11/13 19:51:11;;;;;;;3.92;0.45;;;;;;;15.30;73.23;98980.56;10384670;28;20053;-64
2023/11/13 19:56:13;;;;;;;4.20;0.73;;;;;;;15.27;73.54;98996.22;10401497;28;20103;-64
2023/11/13 20:01:14;;;;;;;3.90;0.40;;;;;;;15.23;74.04;98989.66;10408480;28;20047;-63
2023/11/13 20:06:16;;;;;;;6.90;0.40;;;;;;;15.15;74.46;99027.13;10415113;28;20037;-63
2023/11/13 20:11:19;;;;;;;4.63;0.47;;;;;;;15.08;74.42;99048.88;10393626;28;20137;-63
2023/11/13 20:16:20;;;;;;;5.53;0.68;;;;;;;14.97;74.37;99053.25;10409080;28;20456;-63
2023/11/13 20:21:23;;;;;;;6.40;0.60;;;;;;;14.92;73.98;99041.50;10386199;28;20043;-62
2023/11/13 20:26:24;;;;;;;4.60;0.50;;;;;;;14.86;74.23;99054.91;10403183;28;20049;-61
2023/11/13 20:31:25;;;;;;;5.72;0.70;;;;;;;14.70;73.79;99087.25;10402845;28;20554;-61
2023/11/13 20:36:28;;;;;;;5.32;0.43;;;;;;;14.63;71.66;99073.81;10407625;28;20049;-61
2023/11/13 20:41:29;;;;;;;3.15;0.47;;;;;;;14.57;70.58;99094.50;10402794;28;20433;-61
2023/11/13 20:46:32;;;;;;;3.47;0.43;;;;;;;14.44;69.27;99114.47;10405181;28;20056;-60
2023/11/13 20:51:33;;;;;;;2.95;0.43;;;;;;;14.39;68.66;99118.91;10395748;28;20041;-62
2023/11/13 20:56:35;;;;;;;2.95;0.50;;;;;;;14.31;68.81;99124.66;10412774;28;20400;-61
2023/11/13 21:01:37;;;;;;;4.53;0.52;;;;;;;14.15;68.18;99135.06;10392393;28;20064;-60
2023/11/13 21:06:40;;;;;;;4.68;0.60;;;;;;;14.08;68.34;99145.97;10403688;28;20037;-61
2023/11/13 21:11:42;;;;;;;4.93;0.40;;;;;;;13.98;68.13;99139.44;10390816;28;20049;-60
2023/11/13 21:16:44;;;;;;;4.88;0.40;;;;;;;13.90;67.43;99148.69;10413474;28;20054;-60
2023/11/13 21:21:46;;;;;;;6.70;0.50;;;;;;;13.86;66.75;99164.53;10400789;28;20049;-60
2023/11/13 21:26:50;;;;;;;1.70;0.30;;;;;;;13.85;67.48;99170.16;10408382;28;20056;-59
2023/11/13 21:31:51;;;;;;;5.28;0.40;;;;;;;13.81;66.73;99174.38;10412748;28;20048;-61
2023/11/13 21:36:55;;;;;;;4.90;0.40;;;;;;;13.78;65.94;99189.13;10410607;28;20373;-61
2023/11/13 21:41:56;;;;;;;3.85;0.45;;;;;;;13.78;64.92;99197.25;10407318;28;20040;-61
2023/11/13 21:46:59;;;;;;;2.95;0.43;;;;;;;13.76;64.50;99204.75;10396686;28;20065;-61
2023/11/13 21:52:01;;;;;;;4.72;0.57;;;;;;;13.76;65.48;99217.44;10371280;28;20519;-62
2023/11/13 21:57:03;;;;;;;6.68;0.47;;;;;;;13.64;65.55;99237.06;10408262;28;20052;-62
2023/11/13 22:02:07;;;;;;;4.38;0.40;;;;;;;13.54;65.93;99247.56;10404345;28;20042;-62
2023/11/13 22:07:09;;;;;;;8.98;0.73;;;;;;;13.51;66.39;99260.69;10371971;28;20048;-61
2023/11/13 22:12:10;;;;;;;6.38;0.95;;;;;;;13.45;65.42;99263.22;10403762;28;20072;-61
2023/11/13 22:17:12;;;;;;;5.18;0.70;;;;;;;13.42;65.54;99269.06;10389878;28;20041;-61
2023/11/13 22:22:15;;;;;;;5.15;1.40;;;;;;;13.41;65.55;99258.50;10409779;28;20428;-62
2023/11/13 22:27:19;;;;;;;7.97;1.42;;;;;;;13.37;66.12;99281.56;10384094;28;20404;-62
2023/11/13 22:32:21;;;;;;;8.27;1.48;;;;;;;13.31;66.25;99286.00;10407149;28;20040;-61
2023/11/13 22:37:22;;;;;;;11.50;0.90;;;;;;;13.30;66.61;99284.34;10388158;28;20496;-62
2023/11/13 22:42:27;;;;;;;10.55;0.85;;;;;;;13.24;66.93;99296.78;10405497;28;20079;-62
2023/11/13 22:47:29;;;;;;;8.00;0.95;;;;;;;13.16;67.16;99301.66;10402703;28;20049;-62
2023/11/13 22:52:31;;;;;;;7.32;1.50;;;;;;;13.06;67.54;99299.44;10408638;28;20059;-61
2023/11/13 22:57:32;;;;;;;11.93;0.95;;;;;;;12.84;68.01;99291.69;10371611;28;20144;-62
2023/11/13 23:02:34;;;;;;;11.30;1.10;;;;;;;12.78;68.15;99310.63;10386384;28;20049;-62
2023/11/13 23:07:36;;;;;;;9.27;0.98;;;;;;;12.59;68.53;99313.19;10401884;28;20050;-62
2023/11/13 23:12:40;;;;;;;9.25;1.40;;;;;;;12.42;68.89;99303.91;10406631;28;20048;-61
2023/11/13 23:17:42;;;;;;;15.82;0.85;;;;;;;12.24;69.26;99321.63;10405292;28;20052;-61
2023/11/13 23:22:44;;;;;;;10.73;1.50;;;;;;;12.08;69.83;99322.91;10389214;28;20057;-60
2023/11/13 23:27:45;;;;;;;13.40;0.75;;;;;;;11.89;70.07;99332.69;10389977;28;20138;-60
2023/11/13 23:32:47;;;;;;;11.75;0.85;;;;;;;11.84;69.64;99339.69;10406482;28;20068;-60